sensor_id;sensor_type;location;lat;lon;timestamp;temperature;humidity
30148;DHT22;16960;49.404;8.248;2023-02-04T00:02:21;19.70;38.30
30148;DHT22;16960;49.404;8.248;2023-02-04T00:04:48;19.70;38.40
30148;DHT22;16960;49.404;8.248;2023-02-04T00:07:17;19.70;38.40
30148;DHT22;16960;49.404;8.248;2023-02-04T00:09:44;19.70;38.50
30148;DHT22;16960;49.404;8.248;2023-02-04T00:12:12;19.70;38.40
30148;DHT22;16960;49.404;8.248;2023-02-04T00:14:39;19.60;38.40
30148;DHT22;16960;49.404;8.248;2023-02-04T00:17:06;19.60;38.40
30148;DHT22;16960;49.404;8.248;2023-02-04T00:19:35;19.60;38.40
30148;DHT22;16960;49.404;8.248;2023-02-04T00:22:02;19.60;38.40
30148;DHT22;16960;49.404;8.248;2023-02-04T00:24:30;19.60;38.50
30148;DHT22;16960;49.404;8.248;2023-02-04T00:26:57;19.60;38.50
30148;DHT22;16960;49.404;8.248;2023-02-04T00:29:24;19.60;38.50
30148;DHT22;16960;49.404;8.248;2023-02-04T00:31:51;19.60;38.50
30148;DHT22;16960;49.404;8.248;2023-02-04T00:34:18;19.50;38.50
30148;DHT22;16960;49.404;8.248;2023-02-04T00:36:45;19.50;39.10
30148;DHT22;16960;49.404;8.248;2023-02-04T00:39:12;19.50;38.50
30148;DHT22;16960;49.404;8.248;2023-02-04T00:41:40;19.50;38.60
30148;DHT22;16960;49.404;8.248;2023-02-04T00:44:07;19.50;38.60
30148;DHT22;16960;49.404;8.248;2023-02-04T00:46:34;19.50;38.60
30148;DHT22;16960;49.404;8.248;2023-02-04T00:49:01;19.50;38.60
30148;DHT22;16960;49.404;8.248;2023-02-04T00:51:31;19.40;38.60
30148;DHT22;16960;49.404;8.248;2023-02-04T00:53:57;19.40;38.60
30148;DHT22;16960;49.404;8.248;2023-02-04T00:56:24;19.50;38.60
30148;DHT22;16960;49.404;8.248;2023-02-04T00:58:53;19.40;38.60
30148;DHT22;16960;49.404;8.248;2023-02-04T01:01:19;19.40;38.60
30148;DHT22;16960;49.404;8.248;2023-02-04T01:03:46;19.40;38.60
30148;DHT22;16960;49.404;8.248;2023-02-04T01:06:13;19.40;38.60
30148;DHT22;16960;49.404;8.248;2023-02-04T01:08:40;19.40;38.60
30148;DHT22;16960;49.404;8.248;2023-02-04T01:11:07;19.40;38.60
30148;DHT22;16960;49.404;8.248;2023-02-04T01:13:34;19.40;38.60
30148;DHT22;16960;49.404;8.248;2023-02-04T01:16:02;19.40;38.60
30148;DHT22;16960;49.404;8.248;2023-02-04T01:18:29;19.40;38.60
30148;DHT22;16960;49.404;8.248;2023-02-04T01:20:56;19.30;38.60
30148;DHT22;16960;49.404;8.248;2023-02-04T01:23:23;19.30;38.70
30148;DHT22;16960;49.404;8.248;2023-02-04T01:25:50;19.30;38.70
30148;DHT22;16960;49.404;8.248;2023-02-04T01:28:17;19.30;38.70
30148;DHT22;16960;49.404;8.248;2023-02-04T01:30:44;19.30;38.70
30148;DHT22;16960;49.404;8.248;2023-02-04T01:33:12;19.30;38.70
30148;DHT22;16960;49.404;8.248;2023-02-04T01:35:39;19.30;38.70
30148;DHT22;16960;49.404;8.248;2023-02-04T01:38:06;19.30;39.30
30148;DHT22;16960;49.404;8.248;2023-02-04T01:40:33;19.30;38.70
30148;DHT22;16960;49.404;8.248;2023-02-04T01:43:00;19.30;38.70
30148;DHT22;16960;49.404;8.248;2023-02-04T01:45:27;19.30;38.70
30148;DHT22;16960;49.404;8.248;2023-02-04T01:47:55;19.30;38.70
30148;DHT22;16960;49.404;8.248;2023-02-04T01:50:23;19.30;38.70
30148;DHT22;16960;49.404;8.248;2023-02-04T01:52:50;19.20;38.60
30148;DHT22;16960;49.404;8.248;2023-02-04T01:55:20;19.20;38.60
30148;DHT22;16960;49.404;8.248;2023-02-04T01:57:49;19.20;38.70
30148;DHT22;16960;49.404;8.248;2023-02-04T02:00:23;19.20;38.70
30148;DHT22;16960;49.404;8.248;2023-02-04T02:02:51;19.20;38.70
30148;DHT22;16960;49.404;8.248;2023-02-04T02:05:21;19.20;38.70
30148;DHT22;16960;49.404;8.248;2023-02-04T02:07:52;19.20;38.70
30148;DHT22;16960;49.404;8.248;2023-02-04T02:10:20;19.20;38.70
30148;DHT22;16960;49.404;8.248;2023-02-04T02:12:48;19.20;38.70
30148;DHT22;16960;49.404;8.248;2023-02-04T02:15:16;19.10;38.70
30148;DHT22;16960;49.404;8.248;2023-02-04T02:17:43;19.10;38.80
30148;DHT22;16960;49.404;8.248;2023-02-04T02:20:13;19.10;38.80
30148;DHT22;16960;49.404;8.248;2023-02-04T02:22:46;19.10;38.80
30148;DHT22;16960;49.404;8.248;2023-02-04T02:25:16;19.10;38.80
30148;DHT22;16960;49.404;8.248;2023-02-04T02:27:43;19.10;38.80
30148;DHT22;16960;49.404;8.248;2023-02-04T02:30:11;19.10;38.80
30148;DHT22;16960;49.404;8.248;2023-02-04T02:32:41;19.10;38.70
30148;DHT22;16960;49.404;8.248;2023-02-04T02:35:08;19.10;38.80
30148;DHT22;16960;49.404;8.248;2023-02-04T02:37:35;19.10;38.80
30148;DHT22;16960;49.404;8.248;2023-02-04T02:40:03;19.10;38.80
30148;DHT22;16960;49.404;8.248;2023-02-04T02:42:31;19.10;38.80
30148;DHT22;16960;49.404;8.248;2023-02-04T02:44:59;19.10;38.80
30148;DHT22;16960;49.404;8.248;2023-02-04T02:47:27;19.10;38.80
30148;DHT22;16960;49.404;8.248;2023-02-04T02:49:54;19.00;38.70
30148;DHT22;16960;49.404;8.248;2023-02-04T02:52:21;19.00;38.70
30148;DHT22;16960;49.404;8.248;2023-02-04T02:54:48;19.00;38.70
30148;DHT22;16960;49.404;8.248;2023-02-04T02:57:18;19.10;38.80
30148;DHT22;16960;49.404;8.248;2023-02-04T02:59:47;19.00;38.70
30148;DHT22;16960;49.404;8.248;2023-02-04T03:02:16;19.00;38.70
30148;DHT22;16960;49.404;8.248;2023-02-04T03:04:47;19.00;38.70
30148;DHT22;16960;49.404;8.248;2023-02-04T03:07:14;19.00;38.70
30148;DHT22;16960;49.404;8.248;2023-02-04T03:09:43;19.00;38.70
30148;DHT22;16960;49.404;8.248;2023-02-04T03:12:10;19.00;38.80
30148;DHT22;16960;49.404;8.248;2023-02-04T03:14:37;19.00;38.80
30148;DHT22;16960;49.404;8.248;2023-02-04T03:17:06;19.00;38.80
30148;DHT22;16960;49.404;8.248;2023-02-04T03:19:35;18.90;38.80
30148;DHT22;16960;49.404;8.248;2023-02-04T03:22:03;19.00;38.80
30148;DHT22;16960;49.404;8.248;2023-02-04T03:24:31;19.00;38.80
30148;DHT22;16960;49.404;8.248;2023-02-04T03:26:58;18.90;38.80
30148;DHT22;16960;49.404;8.248;2023-02-04T03:29:25;18.90;38.80
30148;DHT22;16960;49.404;8.248;2023-02-04T03:31:52;18.90;38.80
30148;DHT22;16960;49.404;8.248;2023-02-04T03:34:21;18.90;38.70
30148;DHT22;16960;49.404;8.248;2023-02-04T03:36:48;19.00;38.70
30148;DHT22;16960;49.404;8.248;2023-02-04T03:39:15;19.00;38.70
30148;DHT22;16960;49.404;8.248;2023-02-04T03:41:42;19.00;38.60
30148;DHT22;16960;49.404;8.248;2023-02-04T03:44:09;19.00;38.70
30148;DHT22;16960;49.404;8.248;2023-02-04T03:46:35;19.00;38.60
30148;DHT22;16960;49.404;8.248;2023-02-04T03:49:02;19.00;38.70
30148;DHT22;16960;49.404;8.248;2023-02-04T03:51:31;18.90;38.70
30148;DHT22;16960;49.404;8.248;2023-02-04T03:53:57;18.90;38.70
30148;DHT22;16960;49.404;8.248;2023-02-04T03:56:24;19.00;38.70
30148;DHT22;16960;49.404;8.248;2023-02-04T03:58:51;18.90;38.70
30148;DHT22;16960;49.404;8.248;2023-02-04T04:01:18;18.90;38.70
30148;DHT22;16960;49.404;8.248;2023-02-04T04:03:45;18.90;38.70
30148;DHT22;16960;49.404;8.248;2023-02-04T04:06:12;18.90;38.70
30148;DHT22;16960;49.404;8.248;2023-02-04T04:08:40;18.90;38.70
30148;DHT22;16960;49.404;8.248;2023-02-04T04:11:07;18.90;38.70
30148;DHT22;16960;49.404;8.248;2023-02-04T04:13:34;18.90;38.70
30148;DHT22;16960;49.404;8.248;2023-02-04T04:16:01;18.90;38.70
30148;DHT22;16960;49.404;8.248;2023-02-04T04:18:29;18.90;38.60
30148;DHT22;16960;49.404;8.248;2023-02-04T04:20:57;18.90;38.70
30148;DHT22;16960;49.404;8.248;2023-02-04T04:23:24;18.90;38.70
30148;DHT22;16960;49.404;8.248;2023-02-04T04:25:52;18.90;38.70
30148;DHT22;16960;49.404;8.248;2023-02-04T04:28:19;18.90;38.70
30148;DHT22;16960;49.404;8.248;2023-02-04T04:30:46;18.90;38.60
30148;DHT22;16960;49.404;8.248;2023-02-04T04:33:13;18.90;38.60
30148;DHT22;16960;49.404;8.248;2023-02-04T04:35:40;18.90;38.70
30148;DHT22;16960;49.404;8.248;2023-02-04T04:38:07;18.90;38.60
30148;DHT22;16960;49.404;8.248;2023-02-04T04:40:34;18.90;38.60
30148;DHT22;16960;49.404;8.248;2023-02-04T04:43:02;18.90;38.60
30148;DHT22;16960;49.404;8.248;2023-02-04T04:45:29;18.90;38.60
30148;DHT22;16960;49.404;8.248;2023-02-04T04:47:56;18.90;38.60
30148;DHT22;16960;49.404;8.248;2023-02-04T04:50:23;18.90;38.60
30148;DHT22;16960;49.404;8.248;2023-02-04T04:52:50;18.90;38.60
30148;DHT22;16960;49.404;8.248;2023-02-04T04:55:17;18.90;38.50
30148;DHT22;16960;49.404;8.248;2023-02-04T04:57:44;18.90;38.60
30148;DHT22;16960;49.404;8.248;2023-02-04T05:00:17;18.90;38.60
30148;DHT22;16960;49.404;8.248;2023-02-04T05:02:44;18.90;38.60
30148;DHT22;16960;49.404;8.248;2023-02-04T05:05:12;18.90;38.60
30148;DHT22;16960;49.404;8.248;2023-02-04T05:07:39;18.90;38.60
30148;DHT22;16960;49.404;8.248;2023-02-04T05:10:06;18.90;38.60
30148;DHT22;16960;49.404;8.248;2023-02-04T05:12:33;18.90;38.60
30148;DHT22;16960;49.404;8.248;2023-02-04T05:15:00;18.90;38.50
30148;DHT22;16960;49.404;8.248;2023-02-04T05:17:28;18.90;38.60
30148;DHT22;16960;49.404;8.248;2023-02-04T05:19:55;18.90;38.60
30148;DHT22;16960;49.404;8.248;2023-02-04T05:22:22;18.90;38.50
30148;DHT22;16960;49.404;8.248;2023-02-04T05:24:49;18.90;38.50
30148;DHT22;16960;49.404;8.248;2023-02-04T05:27:16;18.90;38.60
30148;DHT22;16960;49.404;8.248;2023-02-04T05:29:43;18.80;38.50
30148;DHT22;16960;49.404;8.248;2023-02-04T05:32:10;18.80;38.50
30148;DHT22;16960;49.404;8.248;2023-02-04T05:34:38;18.80;38.50
30148;DHT22;16960;49.404;8.248;2023-02-04T05:37:05;18.80;38.50
30148;DHT22;16960;49.404;8.248;2023-02-04T05:39:32;18.90;38.60
30148;DHT22;16960;49.404;8.248;2023-02-04T05:41:59;18.80;38.50
30148;DHT22;16960;49.404;8.248;2023-02-04T05:44:26;18.90;38.60
30148;DHT22;16960;49.404;8.248;2023-02-04T05:46:53;18.90;38.60
30148;DHT22;16960;49.404;8.248;2023-02-04T05:49:19;18.90;38.60
30148;DHT22;16960;49.404;8.248;2023-02-04T05:51:48;19.00;38.60
30148;DHT22;16960;49.404;8.248;2023-02-04T05:54:15;19.00;38.60
30148;DHT22;16960;49.404;8.248;2023-02-04T05:56:45;19.00;38.50
30148;DHT22;16960;49.404;8.248;2023-02-04T05:59:12;19.00;38.60
30148;DHT22;16960;49.404;8.248;2023-02-04T06:01:39;19.10;38.60
30148;DHT22;16960;49.404;8.248;2023-02-04T06:04:06;19.10;38.60
30148;DHT22;16960;49.404;8.248;2023-02-04T06:06:33;19.10;38.60
30148;DHT22;16960;49.404;8.248;2023-02-04T06:09:01;19.20;38.60
30148;DHT22;16960;49.404;8.248;2023-02-04T06:11:28;19.20;38.50
30148;DHT22;16960;49.404;8.248;2023-02-04T06:13:55;19.20;38.50
30148;DHT22;16960;49.404;8.248;2023-02-04T06:16:22;19.20;38.40
30148;DHT22;16960;49.404;8.248;2023-02-04T06:18:49;19.30;38.50
30148;DHT22;16960;49.404;8.248;2023-02-04T06:21:16;19.30;38.50
30148;DHT22;16960;49.404;8.248;2023-02-04T06:23:43;19.40;38.50
30148;DHT22;16960;49.404;8.248;2023-02-04T06:26:11;19.30;38.40
30148;DHT22;16960;49.404;8.248;2023-02-04T06:28:38;19.40;38.40
30148;DHT22;16960;49.404;8.248;2023-02-04T06:31:05;19.40;38.30
30148;DHT22;16960;49.404;8.248;2023-02-04T06:33:34;19.40;38.40
30148;DHT22;16960;49.404;8.248;2023-02-04T06:36:01;19.40;38.30
30148;DHT22;16960;49.404;8.248;2023-02-04T06:38:28;19.50;38.40
30148;DHT22;16960;49.404;8.248;2023-02-04T06:40:55;19.50;38.30
30148;DHT22;16960;49.404;8.248;2023-02-04T06:43:24;19.50;38.30
30148;DHT22;16960;49.404;8.248;2023-02-04T06:45:52;19.60;38.30
30148;DHT22;16960;49.404;8.248;2023-02-04T06:48:19;19.60;38.30
30148;DHT22;16960;49.404;8.248;2023-02-04T06:50:46;19.60;38.20
30148;DHT22;16960;49.404;8.248;2023-02-04T06:53:12;19.60;38.20
30148;DHT22;16960;49.404;8.248;2023-02-04T06:55:39;19.60;38.20
30148;DHT22;16960;49.404;8.248;2023-02-04T06:58:06;19.70;38.20
30148;DHT22;16960;49.404;8.248;2023-02-04T07:00:35;19.70;38.20
30148;DHT22;16960;49.404;8.248;2023-02-04T07:03:02;19.70;38.20
30148;DHT22;16960;49.404;8.248;2023-02-04T07:05:29;19.70;38.30
30148;DHT22;16960;49.404;8.248;2023-02-04T07:07:56;19.80;38.30
30148;DHT22;16960;49.404;8.248;2023-02-04T07:10:23;19.80;38.20
30148;DHT22;16960;49.404;8.248;2023-02-04T07:12:50;19.80;38.10
30148;DHT22;16960;49.404;8.248;2023-02-04T07:15:17;19.80;38.10
30148;DHT22;16960;49.404;8.248;2023-02-04T07:17:45;19.90;38.30
30148;DHT22;16960;49.404;8.248;2023-02-04T07:20:12;19.90;38.20
30148;DHT22;16960;49.404;8.248;2023-02-04T07:22:39;19.90;38.20
30148;DHT22;16960;49.404;8.248;2023-02-04T07:25:07;19.90;38.20
30148;DHT22;16960;49.404;8.248;2023-02-04T07:27:34;20.00;38.10
30148;DHT22;16960;49.404;8.248;2023-02-04T07:30:01;20.00;38.10
30148;DHT22;16960;49.404;8.248;2023-02-04T07:32:28;20.00;38.00
30148;DHT22;16960;49.404;8.248;2023-02-04T07:34:58;20.00;37.90
30148;DHT22;16960;49.404;8.248;2023-02-04T07:37:25;20.00;37.80
30148;DHT22;16960;49.404;8.248;2023-02-04T07:39:52;20.00;37.80
30148;DHT22;16960;49.404;8.248;2023-02-04T07:42:19;20.00;37.70
30148;DHT22;16960;49.404;8.248;2023-02-04T07:44:46;20.10;37.80
30148;DHT22;16960;49.404;8.248;2023-02-04T07:47:13;20.10;37.70
30148;DHT22;16960;49.404;8.248;2023-02-04T07:49:40;20.10;37.70
30148;DHT22;16960;49.404;8.248;2023-02-04T07:52:08;20.10;37.60
30148;DHT22;16960;49.404;8.248;2023-02-04T07:54:35;20.10;37.50
30148;DHT22;16960;49.404;8.248;2023-02-04T07:57:02;20.10;37.50
30148;DHT22;16960;49.404;8.248;2023-02-04T07:59:29;20.20;37.50
30148;DHT22;16960;49.404;8.248;2023-02-04T08:01:56;20.20;37.50
30148;DHT22;16960;49.404;8.248;2023-02-04T08:04:23;20.20;37.40
30148;DHT22;16960;49.404;8.248;2023-02-04T08:06:50;20.20;37.40
30148;DHT22;16960;49.404;8.248;2023-02-04T08:09:18;20.20;37.50
30148;DHT22;16960;49.404;8.248;2023-02-04T08:11:45;20.20;37.50
30148;DHT22;16960;49.404;8.248;2023-02-04T08:14:12;20.30;37.90
30148;DHT22;16960;49.404;8.248;2023-02-04T08:16:39;20.30;37.60
30148;DHT22;16960;49.404;8.248;2023-02-04T08:19:06;20.30;37.50
30148;DHT22;16960;49.404;8.248;2023-02-04T08:21:32;20.30;37.50
30148;DHT22;16960;49.404;8.248;2023-02-04T08:23:59;20.30;37.50
30148;DHT22;16960;49.404;8.248;2023-02-04T08:26:28;20.30;37.50
30148;DHT22;16960;49.404;8.248;2023-02-04T08:28:55;20.30;37.50
30148;DHT22;16960;49.404;8.248;2023-02-04T08:31:22;20.30;37.40
30148;DHT22;16960;49.404;8.248;2023-02-04T08:33:49;20.40;37.30
30148;DHT22;16960;49.404;8.248;2023-02-04T08:36:15;20.40;37.30
30148;DHT22;16960;49.404;8.248;2023-02-04T08:38:42;20.40;37.30
30148;DHT22;16960;49.404;8.248;2023-02-04T08:41:10;20.40;37.20
30148;DHT22;16960;49.404;8.248;2023-02-04T08:43:38;20.40;37.20
30148;DHT22;16960;49.404;8.248;2023-02-04T08:46:05;20.40;37.20
30148;DHT22;16960;49.404;8.248;2023-02-04T08:48:32;20.40;37.10
30148;DHT22;16960;49.404;8.248;2023-02-04T08:50:58;20.40;37.10
30148;DHT22;16960;49.404;8.248;2023-02-04T08:53:25;20.40;37.10
30148;DHT22;16960;49.404;8.248;2023-02-04T08:55:52;20.40;37.00
30148;DHT22;16960;49.404;8.248;2023-02-04T08:58:19;20.50;37.10
30148;DHT22;16960;49.404;8.248;2023-02-04T09:00:47;20.50;37.10
30148;DHT22;16960;49.404;8.248;2023-02-04T09:03:14;20.50;37.00
30148;DHT22;16960;49.404;8.248;2023-02-04T09:05:41;20.50;37.00
30148;DHT22;16960;49.404;8.248;2023-02-04T09:08:08;20.50;37.00
30148;DHT22;16960;49.404;8.248;2023-02-04T09:10:35;20.50;36.90
30148;DHT22;16960;49.404;8.248;2023-02-04T09:13:02;20.50;36.90
30148;DHT22;16960;49.404;8.248;2023-02-04T09:15:29;20.50;36.90
30148;DHT22;16960;49.404;8.248;2023-02-04T09:17:57;20.50;36.90
30148;DHT22;16960;49.404;8.248;2023-02-04T09:20:29;20.50;36.80
30148;DHT22;16960;49.404;8.248;2023-02-04T09:22:56;20.60;36.80
30148;DHT22;16960;49.404;8.248;2023-02-04T09:25:23;20.60;36.80
30148;DHT22;16960;49.404;8.248;2023-02-04T09:27:50;20.50;36.80
30148;DHT22;16960;49.404;8.248;2023-02-04T09:30:17;20.60;36.80
30148;DHT22;16960;49.404;8.248;2023-02-04T09:32:44;20.60;36.80
30148;DHT22;16960;49.404;8.248;2023-02-04T09:35:12;20.60;36.70
30148;DHT22;16960;49.404;8.248;2023-02-04T09:37:39;20.60;36.70
30148;DHT22;16960;49.404;8.248;2023-02-04T09:40:08;20.60;36.70
30148;DHT22;16960;49.404;8.248;2023-02-04T09:42:35;20.70;36.70
30148;DHT22;16960;49.404;8.248;2023-02-04T09:45:02;20.60;36.60
30148;DHT22;16960;49.404;8.248;2023-02-04T09:47:30;20.70;36.70
30148;DHT22;16960;49.404;8.248;2023-02-04T09:49:57;20.60;36.60
30148;DHT22;16960;49.404;8.248;2023-02-04T09:52:26;20.70;36.70
30148;DHT22;16960;49.404;8.248;2023-02-04T09:54:54;20.70;36.70
30148;DHT22;16960;49.404;8.248;2023-02-04T09:57:21;20.70;36.80
30148;DHT22;16960;49.404;8.248;2023-02-04T09:59:48;20.70;36.80
30148;DHT22;16960;49.404;8.248;2023-02-04T10:02:21;20.80;37.00
30148;DHT22;16960;49.404;8.248;2023-02-04T10:04:49;20.80;37.00
30148;DHT22;16960;49.404;8.248;2023-02-04T10:07:18;20.80;37.00
30148;DHT22;16960;49.404;8.248;2023-02-04T10:09:51;20.80;37.10
30148;DHT22;16960;49.404;8.248;2023-02-04T10:12:19;20.80;37.10
30148;DHT22;16960;49.404;8.248;2023-02-04T10:14:46;20.80;37.00
30148;DHT22;16960;49.404;8.248;2023-02-04T10:17:17;20.90;37.10
30148;DHT22;16960;49.404;8.248;2023-02-04T10:19:45;20.90;37.10
30148;DHT22;16960;49.404;8.248;2023-02-04T10:22:16;20.90;37.10
30148;DHT22;16960;49.404;8.248;2023-02-04T10:24:43;20.90;37.00
30148;DHT22;16960;49.404;8.248;2023-02-04T10:27:12;20.90;37.00
30148;DHT22;16960;49.404;8.248;2023-02-04T10:29:42;21.00;36.90
30148;DHT22;16960;49.404;8.248;2023-02-04T10:32:26;21.00;36.90
30148;DHT22;16960;49.404;8.248;2023-02-04T10:34:58;21.00;36.90
30148;DHT22;16960;49.404;8.248;2023-02-04T10:37:25;21.00;36.80
30148;DHT22;16960;49.404;8.248;2023-02-04T10:39:52;21.00;36.80
30148;DHT22;16960;49.404;8.248;2023-02-04T10:42:23;21.10;36.90
30148;DHT22;16960;49.404;8.248;2023-02-04T10:44:50;21.10;36.90
30148;DHT22;16960;49.404;8.248;2023-02-04T10:47:19;21.10;36.80
30148;DHT22;16960;49.404;8.248;2023-02-04T10:49:53;21.20;36.80
30148;DHT22;16960;49.404;8.248;2023-02-04T10:52:22;21.20;36.80
30148;DHT22;16960;49.404;8.248;2023-02-04T10:54:50;21.20;36.80
30148;DHT22;16960;49.404;8.248;2023-02-04T10:57:18;21.20;36.80
30148;DHT22;16960;49.404;8.248;2023-02-04T10:59:49;21.20;36.80
30148;DHT22;16960;49.404;8.248;2023-02-04T11:02:33;21.20;36.90
30148;DHT22;16960;49.404;8.248;2023-02-04T11:05:01;21.20;36.90
30148;DHT22;16960;49.404;8.248;2023-02-04T11:07:29;21.30;36.90
30148;DHT22;16960;49.404;8.248;2023-02-04T11:09:56;21.30;36.90
30148;DHT22;16960;49.404;8.248;2023-02-04T11:12:36;21.30;36.90
30148;DHT22;16960;49.404;8.248;2023-02-04T11:15:05;21.30;36.90
30148;DHT22;16960;49.404;8.248;2023-02-04T11:17:33;21.30;36.90
30148;DHT22;16960;49.404;8.248;2023-02-04T11:20:13;21.30;36.80
30148;DHT22;16960;49.404;8.248;2023-02-04T11:22:42;21.30;36.80
30148;DHT22;16960;49.404;8.248;2023-02-04T11:25:30;21.30;36.80
30148;DHT22;16960;49.404;8.248;2023-02-04T11:27:58;21.40;36.80
30148;DHT22;16960;49.404;8.248;2023-02-04T11:30:30;21.40;36.80
30148;DHT22;16960;49.404;8.248;2023-02-04T11:33:01;21.40;36.80
30148;DHT22;16960;49.404;8.248;2023-02-04T11:35:29;21.50;36.80
30148;DHT22;16960;49.404;8.248;2023-02-04T11:37:57;21.50;36.70
30148;DHT22;16960;49.404;8.248;2023-02-04T11:40:29;21.60;36.60
30148;DHT22;16960;49.404;8.248;2023-02-04T11:42:58;21.60;36.70
30148;DHT22;16960;49.404;8.248;2023-02-04T11:45:30;21.60;36.90
30148;DHT22;16960;49.404;8.248;2023-02-04T11:47:59;21.70;37.10
30148;DHT22;16960;49.404;8.248;2023-02-04T11:50:28;21.80;37.10
30148;DHT22;16960;49.404;8.248;2023-02-04T11:52:56;21.80;37.00
30148;DHT22;16960;49.404;8.248;2023-02-04T11:55:24;21.80;36.90
30148;DHT22;16960;49.404;8.248;2023-02-04T11:57:52;21.80;36.80
30148;DHT22;16960;49.404;8.248;2023-02-04T12:00:21;21.90;36.90
30148;DHT22;16960;49.404;8.248;2023-02-04T12:02:55;21.90;36.80
30148;DHT22;16960;49.404;8.248;2023-02-04T12:05:28;21.90;36.80
30148;DHT22;16960;49.404;8.248;2023-02-04T12:08:09;21.90;36.80
30148;DHT22;16960;49.404;8.248;2023-02-04T12:10:36;21.90;36.80
30148;DHT22;16960;49.404;8.248;2023-02-04T12:13:12;22.00;36.80
30148;DHT22;16960;49.404;8.248;2023-02-04T12:15:39;22.00;36.70
30148;DHT22;16960;49.404;8.248;2023-02-04T12:18:09;22.00;36.70
30148;DHT22;16960;49.404;8.248;2023-02-04T12:20:37;22.00;36.70
30148;DHT22;16960;49.404;8.248;2023-02-04T12:23:04;22.00;36.60
30148;DHT22;16960;49.404;8.248;2023-02-04T12:25:33;22.10;36.70
30148;DHT22;16960;49.404;8.248;2023-02-04T12:28:00;22.20;36.60
30148;DHT22;16960;49.404;8.248;2023-02-04T12:30:27;22.20;36.60
30148;DHT22;16960;49.404;8.248;2023-02-04T12:32:54;22.30;36.50
30148;DHT22;16960;49.404;8.248;2023-02-04T12:35:22;22.30;36.50
30148;DHT22;16960;49.404;8.248;2023-02-04T12:37:49;22.40;36.40
30148;DHT22;16960;49.404;8.248;2023-02-04T12:40:18;22.40;36.30
30148;DHT22;16960;49.404;8.248;2023-02-04T12:42:46;22.50;36.30
30148;DHT22;16960;49.404;8.248;2023-02-04T12:45:14;22.60;36.30
30148;DHT22;16960;49.404;8.248;2023-02-04T12:47:42;22.60;36.40
30148;DHT22;16960;49.404;8.248;2023-02-04T12:50:11;22.60;36.30
30148;DHT22;16960;49.404;8.248;2023-02-04T12:52:39;22.70;36.30
30148;DHT22;16960;49.404;8.248;2023-02-04T12:55:07;22.70;36.30
30148;DHT22;16960;49.404;8.248;2023-02-04T12:57:34;22.70;36.30
30148;DHT22;16960;49.404;8.248;2023-02-04T13:00:02;22.80;36.20
30148;DHT22;16960;49.404;8.248;2023-02-04T13:02:29;22.80;36.20
30148;DHT22;16960;49.404;8.248;2023-02-04T13:04:56;22.90;36.20
30148;DHT22;16960;49.404;8.248;2023-02-04T13:07:23;22.90;36.20
30148;DHT22;16960;49.404;8.248;2023-02-04T13:09:51;22.90;36.30
30148;DHT22;16960;49.404;8.248;2023-02-04T13:12:18;23.00;36.20
30148;DHT22;16960;49.404;8.248;2023-02-04T13:14:45;22.90;36.10
30148;DHT22;16960;49.404;8.248;2023-02-04T13:17:12;22.90;36.10
30148;DHT22;16960;49.404;8.248;2023-02-04T13:19:39;22.90;36.20
30148;DHT22;16960;49.404;8.248;2023-02-04T13:22:06;22.90;36.20
30148;DHT22;16960;49.404;8.248;2023-02-04T13:24:33;22.90;36.20
30148;DHT22;16960;49.404;8.248;2023-02-04T13:27:01;22.90;36.30
30148;DHT22;16960;49.404;8.248;2023-02-04T13:29:28;22.80;36.30
30148;DHT22;16960;49.404;8.248;2023-02-04T13:31:55;22.80;36.30
30148;DHT22;16960;49.404;8.248;2023-02-04T13:34:22;22.80;36.50
30148;DHT22;16960;49.404;8.248;2023-02-04T13:36:49;22.80;37.00
30148;DHT22;16960;49.404;8.248;2023-02-04T13:39:16;22.80;37.10
30148;DHT22;16960;49.404;8.248;2023-02-04T13:41:42;22.80;37.00
30148;DHT22;16960;49.404;8.248;2023-02-04T13:44:12;22.80;37.40
30148;DHT22;16960;49.404;8.248;2023-02-04T13:46:39;22.80;37.00
30148;DHT22;16960;49.404;8.248;2023-02-04T13:49:06;22.80;36.90
30148;DHT22;16960;49.404;8.248;2023-02-04T13:51:33;22.80;36.80
30148;DHT22;16960;49.404;8.248;2023-02-04T13:54:00;22.80;36.80
30148;DHT22;16960;49.404;8.248;2023-02-04T13:56:27;22.90;36.80
30148;DHT22;16960;49.404;8.248;2023-02-04T13:58:54;22.90;36.80
30148;DHT22;16960;49.404;8.248;2023-02-04T14:01:22;22.80;36.70
30148;DHT22;16960;49.404;8.248;2023-02-04T14:03:49;22.80;36.70
30148;DHT22;16960;49.404;8.248;2023-02-04T14:06:16;22.90;36.70
30148;DHT22;16960;49.404;8.248;2023-02-04T14:08:45;22.90;36.70
30148;DHT22;16960;49.404;8.248;2023-02-04T14:11:12;22.90;36.70
30148;DHT22;16960;49.404;8.248;2023-02-04T14:13:39;22.90;36.70
30148;DHT22;16960;49.404;8.248;2023-02-04T14:16:06;22.90;36.60
30148;DHT22;16960;49.404;8.248;2023-02-04T14:18:35;23.00;36.60
30148;DHT22;16960;49.404;8.248;2023-02-04T14:21:02;23.00;36.60
30148;DHT22;16960;49.404;8.248;2023-02-04T14:23:30;23.00;36.50
30148;DHT22;16960;49.404;8.248;2023-02-04T14:25:57;23.00;37.10
30148;DHT22;16960;49.404;8.248;2023-02-04T14:28:24;23.10;36.50
30148;DHT22;16960;49.404;8.248;2023-02-04T14:30:51;23.00;36.40
30148;DHT22;16960;49.404;8.248;2023-02-04T14:33:19;23.00;36.90
30148;DHT22;16960;49.404;8.248;2023-02-04T14:35:47;23.00;36.40
30148;DHT22;16960;49.404;8.248;2023-02-04T14:38:14;23.00;36.40
30148;DHT22;16960;49.404;8.248;2023-02-04T14:40:43;22.90;36.50
30148;DHT22;16960;49.404;8.248;2023-02-04T14:43:10;22.90;36.50
30148;DHT22;16960;49.404;8.248;2023-02-04T14:45:37;22.90;37.10
30148;DHT22;16960;49.404;8.248;2023-02-04T14:48:05;22.90;36.50
30148;DHT22;16960;49.404;8.248;2023-02-04T14:50:32;22.80;36.50
30148;DHT22;16960;49.404;8.248;2023-02-04T14:53:00;22.80;36.50
30148;DHT22;16960;49.404;8.248;2023-02-04T14:55:27;22.80;36.50
30148;DHT22;16960;49.404;8.248;2023-02-04T14:57:54;22.80;36.50
30148;DHT22;16960;49.404;8.248;2023-02-04T15:00:21;22.80;36.50
30148;DHT22;16960;49.404;8.248;2023-02-04T15:02:48;22.80;36.60
30148;DHT22;16960;49.404;8.248;2023-02-04T15:05:15;22.70;36.60
30148;DHT22;16960;49.404;8.248;2023-02-04T15:07:42;22.70;36.60
30148;DHT22;16960;49.404;8.248;2023-02-04T15:10:11;22.70;36.60
30148;DHT22;16960;49.404;8.248;2023-02-04T15:12:38;22.70;36.60
30148;DHT22;16960;49.404;8.248;2023-02-04T15:15:05;22.70;36.60
30148;DHT22;16960;49.404;8.248;2023-02-04T15:17:32;22.70;36.60
30148;DHT22;16960;49.404;8.248;2023-02-04T15:19:59;22.70;36.60
30148;DHT22;16960;49.404;8.248;2023-02-04T15:22:28;22.70;36.60
30148;DHT22;16960;49.404;8.248;2023-02-04T15:24:55;22.70;36.60
30148;DHT22;16960;49.404;8.248;2023-02-04T15:27:23;22.70;36.60
30148;DHT22;16960;49.404;8.248;2023-02-04T15:29:50;22.70;36.60
30148;DHT22;16960;49.404;8.248;2023-02-04T15:32:17;22.70;36.60
30148;DHT22;16960;49.404;8.248;2023-02-04T15:34:44;22.70;36.60